createdAt,value
2023-05-21T00:00:02.760Z,15.61
2023-05-21T00:02:05.315Z,15.57
2023-05-21T00:04:08.206Z,15.57
2023-05-21T00:06:10.391Z,15.59
2023-05-21T00:08:12.687Z,15.65
2023-05-21T00:10:14.776Z,15.64
2023-05-21T00:12:16.971Z,15.53
2023-05-21T00:14:19.225Z,15.55
2023-05-21T00:16:21.409Z,15.54
2023-05-21T00:18:25.620Z,15.41
2023-05-21T00:20:29.508Z,15.37
2023-05-21T00:22:33.794Z,15.40
2023-05-21T00:24:36.161Z,15.40
2023-05-21T00:26:38.481Z,15.34
2023-05-21T00:28:40.500Z,15.27
2023-05-21T00:30:43.341Z,15.18
2023-05-21T00:32:45.640Z,15.12
2023-05-21T00:34:48.645Z,15.16
2023-05-21T00:36:50.820Z,15.20
2023-05-21T00:38:52.974Z,15.16
2023-05-21T00:40:55.068Z,15.15
2023-05-21T00:42:57.484Z,15.19
2023-05-21T00:45:00.243Z,15.18
2023-05-21T00:47:02.914Z,15.13
2023-05-21T00:49:05.799Z,15.01
2023-05-21T00:51:08.040Z,14.98
2023-05-21T00:53:11.855Z,14.89
2023-05-21T00:55:14.089Z,14.89
2023-05-21T00:57:20.959Z,14.85
2023-05-21T00:59:24.365Z,14.84
2023-05-21T01:01:26.817Z,14.96
2023-05-21T01:03:31.493Z,14.92
2023-05-21T01:05:33.959Z,14.78
2023-05-21T01:07:39.370Z,14.79
2023-05-21T01:09:43.045Z,14.84
2023-05-21T01:11:48.270Z,14.68
2023-05-21T01:13:51.210Z,14.79
2023-05-21T01:15:54.391Z,14.71
2023-05-21T01:17:57.502Z,14.70
2023-05-21T01:20:02.019Z,14.54
2023-05-21T01:22:08.184Z,14.62
2023-05-21T01:24:10.511Z,14.50
2023-05-21T01:26:17.302Z,14.51
2023-05-21T01:28:19.417Z,14.43
2023-05-21T01:30:23.387Z,14.51
2023-05-21T01:32:44.878Z,14.50
2023-05-21T01:34:56.212Z,14.48
2023-05-21T01:37:17.625Z,14.43
2023-05-21T01:39:26.109Z,14.39
2023-05-21T01:41:33.588Z,14.37
2023-05-21T01:43:40.120Z,14.42
2023-05-21T01:45:45.190Z,14.45
2023-05-21T01:47:50.000Z,14.40
2023-05-21T01:49:52.798Z,14.38
2023-05-21T01:51:55.357Z,14.43
2023-05-21T01:53:57.643Z,14.45
2023-05-21T01:56:03.104Z,14.39
2023-05-21T01:58:05.436Z,14.42
2023-05-21T02:00:09.169Z,14.39
2023-05-21T02:02:11.600Z,14.43
2023-05-21T02:04:13.827Z,14.27
2023-05-21T02:06:16.211Z,14.34
2023-05-21T02:08:20.001Z,14.14
2023-05-21T02:10:22.273Z,14.05
2023-05-21T02:12:24.377Z,14.02
2023-05-21T02:14:26.609Z,14.09
2023-05-21T02:16:28.786Z,14.08
2023-05-21T02:18:30.994Z,14.11
2023-05-21T02:20:33.164Z,14.11
2023-05-21T02:22:35.352Z,14.07
2023-05-21T02:24:37.578Z,14.10
2023-05-21T02:26:39.704Z,14.14
2023-05-21T02:28:41.792Z,14.07
2023-05-21T02:30:43.920Z,14.02
2023-05-21T02:32:49.141Z,14.06
2023-05-21T02:34:51.356Z,13.99
2023-05-21T02:36:53.447Z,14.04
2023-05-21T02:38:58.101Z,14.00
2023-05-21T02:41:00.362Z,13.99
2023-05-21T02:43:02.473Z,13.97
2023-05-21T02:45:05.204Z,13.91
2023-05-21T02:47:08.648Z,13.90
2023-05-21T02:49:10.908Z,13.90
2023-05-21T02:51:13.063Z,13.80
2023-05-21T02:53:15.207Z,13.83
2023-05-21T02:55:17.327Z,13.85
2023-05-21T02:57:19.816Z,13.91
2023-05-21T02:59:21.873Z,13.89
2023-05-21T03:01:23.775Z,13.87
2023-05-21T03:03:25.859Z,13.83
2023-05-21T03:05:28.029Z,13.78
2023-05-21T03:07:29.851Z,13.65
2023-05-21T03:09:31.843Z,13.60
2023-05-21T03:11:33.775Z,13.54
2023-05-21T03:13:35.822Z,13.62
2023-05-21T03:15:39.517Z,13.64
2023-05-21T03:17:42.846Z,13.60
2023-05-21T03:19:45.015Z,13.58
2023-05-21T03:21:47.046Z,13.46
2023-05-21T03:23:49.716Z,13.35
2023-05-21T03:25:51.551Z,13.38
2023-05-21T03:27:53.431Z,13.34
2023-05-21T03:29:56.103Z,13.46
2023-05-21T03:31:58.153Z,13.39
2023-05-21T03:34:00.201Z,13.40
2023-05-21T03:36:02.324Z,13.39
2023-05-21T03:38:04.784Z,13.39
2023-05-21T03:40:07.817Z,13.36
2023-05-21T03:42:09.736Z,13.45
2023-05-21T03:44:11.697Z,13.50
2023-05-21T03:46:13.609Z,13.38
2023-05-21T03:48:20.047Z,13.30
2023-05-21T03:50:21.886Z,13.33
2023-05-21T03:52:23.769Z,13.34
2023-05-21T03:54:25.900Z,13.31
2023-05-21T03:56:27.786Z,13.33
2023-05-21T03:58:30.734Z,13.29
2023-05-21T04:00:34.636Z,13.42
2023-05-21T04:02:36.603Z,13.31
2023-05-21T04:04:38.519Z,13.18
2023-05-21T04:06:42.488Z,13.36
2023-05-21T04:08:44.673Z,13.34
2023-05-21T04:10:46.619Z,13.40
2023-05-21T04:12:52.527Z,13.41
2023-05-21T04:14:54.479Z,13.20
2023-05-21T04:16:56.877Z,13.34
2023-05-21T04:18:58.712Z,13.27
2023-05-21T04:21:01.941Z,13.42
2023-05-21T04:23:03.889Z,13.36
2023-05-21T04:25:06.347Z,13.36
2023-05-21T04:27:10.229Z,13.39
2023-05-21T04:29:12.135Z,13.35
2023-05-21T04:31:14.130Z,13.42
2023-05-21T04:33:18.587Z,13.45
2023-05-21T04:35:20.716Z,13.50
2023-05-21T04:37:24.751Z,13.44
2023-05-21T04:39:26.778Z,13.42
2023-05-21T04:41:28.661Z,13.47
2023-05-21T04:43:32.125Z,13.44
2023-05-21T04:45:34.230Z,13.27
2023-05-21T04:47:36.350Z,13.43
2023-05-21T04:49:38.312Z,13.35
2023-05-21T04:51:40.187Z,13.41
2023-05-21T04:53:42.732Z,13.38
2023-05-21T04:55:44.611Z,13.25
2023-05-21T04:57:46.578Z,13.34
2023-05-21T04:59:49.364Z,13.39
2023-05-21T05:01:51.416Z,13.31
2023-05-21T05:03:53.662Z,13.37
2023-05-21T05:05:55.786Z,13.40
2023-05-21T05:07:58.547Z,13.30
2023-05-21T05:10:00.507Z,13.41
2023-05-21T05:12:02.421Z,13.23
2023-05-21T05:14:04.326Z,13.25
2023-05-21T05:16:07.530Z,13.16
2023-05-21T05:18:09.739Z,13.33
2023-05-21T05:20:12.038Z,13.33
2023-05-21T05:22:13.940Z,13.42
2023-05-21T05:24:16.398Z,13.31
2023-05-21T05:26:18.325Z,13.44
2023-05-21T05:28:20.198Z,13.42
2023-05-21T05:30:22.051Z,13.35
2023-05-21T05:32:23.973Z,13.38
2023-05-21T05:34:26.048Z,13.28
2023-05-21T05:36:27.998Z,13.39
2023-05-21T05:38:29.887Z,13.53
2023-05-21T05:40:31.811Z,13.37
2023-05-21T05:42:33.849Z,13.44
2023-05-21T05:44:35.758Z,13.49
2023-05-21T05:46:37.904Z,13.57
2023-05-21T05:48:40.122Z,13.55
2023-05-21T05:50:41.983Z,13.47
2023-05-21T05:52:43.881Z,13.60
2023-05-21T05:54:46.062Z,13.68
2023-05-21T05:56:48.044Z,13.57
2023-05-21T05:58:49.916Z,13.67
2023-05-21T06:00:52.462Z,13.64
2023-05-21T06:02:54.398Z,13.72
2023-05-21T06:04:56.376Z,13.74
2023-05-21T06:06:58.756Z,13.69
2023-05-21T06:09:01.363Z,13.79
2023-05-21T06:11:07.032Z,13.77
2023-05-21T06:13:08.881Z,13.77
2023-05-21T06:15:11.133Z,13.77
2023-05-21T06:17:13.120Z,13.69
2023-05-21T06:19:15.106Z,13.80
2023-05-21T06:21:17.183Z,13.90
2023-05-21T06:23:19.033Z,13.98
2023-05-21T06:25:21.102Z,14.01
2023-05-21T06:27:22.988Z,14.00
2023-05-21T06:29:24.994Z,14.00
2023-05-21T06:31:26.934Z,14.08
2023-05-21T06:33:29.002Z,13.99
2023-05-21T06:35:30.944Z,14.05
2023-05-21T06:37:32.883Z,14.06
2023-05-21T06:39:34.809Z,13.98
2023-05-21T06:41:36.816Z,14.11
2023-05-21T06:43:38.682Z,14.15
2023-05-21T06:45:40.890Z,14.17
2023-05-21T06:47:43.233Z,14.21
2023-05-21T06:49:45.187Z,14.29
2023-05-21T06:51:47.433Z,14.24
2023-05-21T06:53:49.450Z,14.31
2023-05-21T06:55:54.052Z,14.25
2023-05-21T06:57:58.619Z,14.39
2023-05-21T07:00:00.824Z,14.41
2023-05-21T07:02:04.496Z,14.25
2023-05-21T07:04:06.763Z,14.47
2023-05-21T07:06:08.917Z,14.51
2023-05-21T07:08:12.330Z,14.53
2023-05-21T07:10:14.343Z,14.65
2023-05-21T07:12:16.224Z,14.66
2023-05-21T07:14:18.171Z,14.69
2023-05-21T07:16:20.176Z,14.81
2023-05-21T07:18:28.203Z,14.86
2023-05-21T07:20:30.170Z,14.89
2023-05-21T07:22:32.130Z,14.93
2023-05-21T07:24:34.085Z,14.93
2023-05-21T07:26:36.056Z,14.88
2023-05-21T07:28:38.118Z,15.05
2023-05-21T07:30:40.089Z,15.08
2023-05-21T07:32:42.367Z,15.19
2023-05-21T07:34:44.322Z,15.17
2023-05-21T07:36:46.274Z,15.23
2023-05-21T07:38:48.267Z,15.21
2023-05-21T07:40:50.322Z,15.38
2023-05-21T07:42:52.476Z,15.44
2023-05-21T07:44:54.473Z,15.34
2023-05-21T07:46:56.728Z,15.51
2023-05-21T07:48:58.686Z,15.50
2023-05-21T07:51:01.250Z,15.60
2023-05-21T07:53:03.538Z,15.70
2023-05-21T07:55:06.573Z,15.70
2023-05-21T07:57:08.510Z,15.73
2023-05-21T07:59:11.677Z,15.78
2023-05-21T08:01:15.402Z,15.86
2023-05-21T08:03:19.830Z,15.91
2023-05-21T08:05:23.646Z,15.96
2023-05-21T08:07:25.593Z,16.06
2023-05-21T08:09:27.499Z,16.11
2023-05-21T08:11:29.603Z,16.07
2023-05-21T08:13:31.631Z,16.03
2023-05-21T08:15:33.935Z,16.17
2023-05-21T08:17:35.953Z,16.12
2023-05-21T08:19:38.467Z,16.30
2023-05-21T08:21:40.603Z,16.36
2023-05-21T08:23:42.725Z,16.37
2023-05-21T08:25:44.665Z,16.40
2023-05-21T08:27:46.720Z,16.47
2023-05-21T08:29:48.713Z,16.55
2023-05-21T08:31:50.700Z,16.61
2023-05-21T08:33:54.009Z,16.64
2023-05-21T08:35:55.982Z,16.70
2023-05-21T08:38:03.287Z,16.73
2023-05-21T08:40:06.771Z,16.72
2023-05-21T08:42:25.663Z,16.71
2023-05-21T08:44:42.384Z,16.89
2023-05-21T08:46:46.225Z,16.98
2023-05-21T08:48:48.588Z,16.95
2023-05-21T08:50:54.977Z,17.02
2023-05-21T08:52:59.174Z,17.11
2023-05-21T08:55:03.980Z,17.17
2023-05-21T08:57:06.818Z,17.09
2023-05-21T08:59:08.978Z,17.23
2023-05-21T09:01:12.948Z,17.33
2023-05-21T09:03:16.415Z,17.30
2023-05-21T09:05:18.582Z,17.41
2023-05-21T09:07:20.788Z,17.56
2023-05-21T09:09:32.924Z,17.64
2023-05-21T09:11:34.837Z,17.67
2023-05-21T09:13:39.142Z,17.70
2023-05-21T09:15:42.101Z,17.78
2023-05-21T09:17:47.906Z,17.89
2023-05-21T09:20:08.206Z,18.03
2023-05-21T09:22:10.203Z,18.14
2023-05-21T09:24:14.272Z,18.15
2023-05-21T09:26:16.399Z,18.23
2023-05-21T09:28:23.308Z,18.38
2023-05-21T09:30:27.809Z,18.45
2023-05-21T09:32:32.317Z,18.54
2023-05-21T09:34:37.025Z,18.44
2023-05-21T09:36:45.884Z,18.50
2023-05-21T09:38:53.801Z,18.48
2023-05-21T09:40:57.172Z,18.48
2023-05-21T09:42:59.481Z,18.68
2023-05-21T09:45:02.583Z,18.78
2023-05-21T09:47:04.686Z,18.75
2023-05-21T09:49:06.985Z,18.87
2023-05-21T09:51:11.603Z,18.80
2023-05-21T09:53:14.713Z,18.96
2023-05-21T09:55:17.713Z,19.10
2023-05-21T09:57:29.909Z,19.23
2023-05-21T09:59:39.752Z,19.38
2023-05-21T10:01:41.826Z,19.46
2023-05-21T10:03:50.554Z,19.61
2023-05-21T10:05:55.180Z,19.61
2023-05-21T10:08:03.394Z,19.69
2023-05-21T10:10:10.868Z,19.77
2023-05-21T10:12:19.512Z,19.88
2023-05-21T10:14:26.346Z,19.96
2023-05-21T10:16:30.802Z,20.08
2023-05-21T10:18:33.733Z,20.28
2023-05-21T10:20:38.352Z,20.37
2023-05-21T10:22:42.095Z,20.36
2023-05-21T10:24:45.496Z,20.48
2023-05-21T10:26:48.686Z,20.37
2023-05-21T10:28:52.381Z,20.59
2023-05-21T10:30:54.740Z,20.73
2023-05-21T10:32:58.217Z,20.74
2023-05-21T10:35:02.694Z,20.61
2023-05-21T10:37:08.247Z,20.65
2023-05-21T10:39:13.113Z,20.79
2023-05-21T10:41:17.449Z,20.99
2023-05-21T10:43:39.053Z,21.03
2023-05-21T10:45:50.819Z,20.96
2023-05-21T10:48:13.850Z,20.91
2023-05-21T10:50:19.401Z,20.50
2023-05-21T10:52:37.019Z,20.67
2023-05-21T10:54:50.135Z,20.61
2023-05-21T10:57:08.210Z,20.59
2023-05-21T10:59:18.766Z,20.57
2023-05-21T11:01:21.457Z,20.56
2023-05-21T11:03:24.067Z,20.58
2023-05-21T11:05:45.666Z,20.64
2023-05-21T11:07:53.175Z,20.37
2023-05-21T11:10:24.754Z,20.43
2023-05-21T11:12:27.590Z,20.28
2023-05-21T11:14:38.404Z,20.29
2023-05-21T11:16:47.113Z,20.08
2023-05-21T11:18:49.558Z,20.14
2023-05-21T11:20:52.264Z,20.13
2023-05-21T11:22:54.468Z,20.24
2023-05-21T11:25:01.221Z,20.32
2023-05-21T11:27:05.074Z,20.37
2023-05-21T11:29:10.831Z,20.43
2023-05-21T11:31:23.281Z,20.58
2023-05-21T11:33:25.386Z,20.72
2023-05-21T11:35:28.508Z,20.65
2023-05-21T11:37:33.406Z,20.77
2023-05-21T11:39:40.478Z,20.79
2023-05-21T11:41:54.305Z,20.84
2023-05-21T11:44:03.465Z,20.54
2023-05-21T11:46:06.061Z,20.95
2023-05-21T11:48:14.387Z,20.97
2023-05-21T11:50:17.815Z,20.98
2023-05-21T11:52:20.855Z,20.92
2023-05-21T11:54:23.947Z,21.07
2023-05-21T11:56:26.476Z,21.14
2023-05-21T11:58:31.878Z,21.24
2023-05-21T12:00:40.269Z,21.44
2023-05-21T12:02:52.960Z,21.46
2023-05-21T12:05:00.508Z,21.23
2023-05-21T12:07:08.129Z,21.32
2023-05-21T12:09:11.234Z,21.09
2023-05-21T12:11:13.480Z,21.23
2023-05-21T12:13:15.653Z,21.17
2023-05-21T12:15:18.700Z,21.40
2023-05-21T12:17:22.287Z,21.39
2023-05-21T12:19:24.397Z,21.50
2023-05-21T12:21:29.520Z,21.38
2023-05-21T12:23:31.987Z,21.56
2023-05-21T12:25:34.430Z,21.52
2023-05-21T12:27:37.266Z,21.68
2023-05-21T12:29:42.763Z,21.64
2023-05-21T12:31:49.686Z,21.89
2023-05-21T12:33:52.547Z,22.07
2023-05-21T12:35:54.561Z,21.98
2023-05-21T12:37:56.984Z,22.13
2023-05-21T12:40:01.483Z,21.93
2023-05-21T12:42:03.737Z,21.83
2023-05-21T12:44:09.067Z,21.87
2023-05-21T12:46:17.515Z,21.86
2023-05-21T12:48:19.575Z,21.84
2023-05-21T12:50:22.452Z,21.73
2023-05-21T12:52:25.035Z,21.79
2023-05-21T12:54:38.055Z,21.71
2023-05-21T12:56:47.202Z,21.69
2023-05-21T12:58:50.786Z,21.61
2023-05-21T13:00:56.694Z,21.50
2023-05-21T13:03:00.379Z,21.43
2023-05-21T13:05:05.958Z,21.56
2023-05-21T13:07:07.959Z,21.39
2023-05-21T13:09:10.045Z,21.47
2023-05-21T13:11:12.041Z,21.38
2023-05-21T13:13:13.985Z,21.32
2023-05-21T13:15:16.013Z,21.45
2023-05-21T13:17:19.033Z,21.32
2023-05-21T13:19:21.270Z,21.39
2023-05-21T13:21:23.796Z,21.42
2023-05-21T13:23:25.965Z,21.43
2023-05-21T13:25:29.219Z,21.39
2023-05-21T13:27:31.402Z,21.21
2023-05-21T13:29:33.702Z,21.24
2023-05-21T13:31:35.956Z,21.23
2023-05-21T13:33:38.072Z,21.27
2023-05-21T13:35:40.346Z,21.30
2023-05-21T13:37:42.810Z,21.28
2023-05-21T13:39:44.885Z,21.22
2023-05-21T13:41:47.715Z,21.25
2023-05-21T13:43:49.686Z,21.26
2023-05-21T13:45:52.897Z,21.27
2023-05-21T13:47:55.141Z,21.20
2023-05-21T13:49:57.186Z,21.28
2023-05-21T13:52:01.138Z,21.33
2023-05-21T13:54:03.361Z,21.40
2023-05-21T13:56:06.078Z,21.29
2023-05-21T13:58:08.721Z,21.29
2023-05-21T14:00:14.651Z,21.41
2023-05-21T14:02:17.191Z,21.31
2023-05-21T14:04:20.843Z,21.30
2023-05-21T14:06:22.844Z,21.41
2023-05-21T14:08:27.704Z,21.29
2023-05-21T14:10:29.886Z,21.35
2023-05-21T14:12:31.951Z,21.40
2023-05-21T14:14:34.170Z,21.38
2023-05-21T14:16:36.601Z,21.26
2023-05-21T14:18:38.693Z,21.50
2023-05-21T14:20:40.780Z,21.40
2023-05-21T14:22:43.166Z,21.39
2023-05-21T14:24:45.276Z,21.38
2023-05-21T14:26:47.221Z,21.36
2023-05-21T14:28:49.541Z,21.42
2023-05-21T14:30:51.621Z,21.39
2023-05-21T14:32:54.610Z,21.50
2023-05-21T14:34:59.557Z,21.61
2023-05-21T14:37:01.629Z,21.62
2023-05-21T14:39:04.368Z,21.65
2023-05-21T14:41:07.509Z,21.46
2023-05-21T14:43:10.001Z,21.56
2023-05-21T14:45:19.128Z,21.58
2023-05-21T14:47:22.049Z,21.58
2023-05-21T14:49:24.298Z,21.53
2023-05-21T14:51:26.864Z,21.64
2023-05-21T14:53:28.858Z,21.58
2023-05-21T14:55:31.169Z,21.69
2023-05-21T14:57:33.222Z,21.66
2023-05-21T14:59:35.420Z,21.57
2023-05-21T15:01:37.610Z,21.65
2023-05-21T15:03:39.810Z,21.54
2023-05-21T15:05:42.059Z,21.67
2023-05-21T15:07:44.620Z,21.52
2023-05-21T15:09:46.574Z,21.49
2023-05-21T15:11:52.608Z,21.51
2023-05-21T15:13:55.107Z,21.42
2023-05-21T15:15:57.334Z,21.43
2023-05-21T15:18:00.757Z,21.45
2023-05-21T15:20:04.788Z,21.25
2023-05-21T15:22:06.827Z,21.32
2023-05-21T15:24:09.170Z,21.38
2023-05-21T15:26:11.177Z,21.31
2023-05-21T15:28:13.432Z,21.35
2023-05-21T15:30:15.615Z,21.09
2023-05-21T15:32:18.758Z,21.33
2023-05-21T15:34:20.909Z,21.14
2023-05-21T15:36:23.312Z,21.25
2023-05-21T15:38:25.821Z,21.31
2023-05-21T15:40:27.811Z,21.30
2023-05-21T15:42:31.952Z,21.26
2023-05-21T15:44:34.268Z,21.44
2023-05-21T15:46:36.573Z,21.41
2023-05-21T15:48:38.924Z,21.47
2023-05-21T15:50:41.223Z,21.60
2023-05-21T15:52:43.439Z,21.48
2023-05-21T15:54:46.657Z,21.51
2023-05-21T15:56:50.698Z,21.53
2023-05-21T15:58:53.070Z,21.39
2023-05-21T16:00:55.294Z,21.67
2023-05-21T16:02:57.379Z,21.62
2023-05-21T16:04:59.637Z,21.66
2023-05-21T16:07:02.009Z,21.65
2023-05-21T16:09:04.211Z,21.55
2023-05-21T16:11:06.517Z,21.54
2023-05-21T16:13:08.701Z,21.62
2023-05-21T16:15:11.529Z,21.39
2023-05-21T16:17:13.848Z,21.41
2023-05-21T16:19:16.419Z,21.35
2023-05-21T16:21:18.723Z,21.40
2023-05-21T16:23:20.948Z,21.22
2023-05-21T16:25:23.264Z,21.29
2023-05-21T16:27:26.054Z,21.35
2023-05-21T16:29:28.334Z,21.19
2023-05-21T16:31:30.891Z,21.08
2023-05-21T16:33:33.234Z,21.04
2023-05-21T16:35:35.697Z,21.00
2023-05-21T16:37:38.069Z,20.90
2023-05-21T16:39:40.296Z,20.89
2023-05-21T16:41:43.945Z,20.94
2023-05-21T16:43:46.393Z,20.89
2023-05-21T16:45:49.547Z,20.92
2023-05-21T16:47:52.359Z,20.94
2023-05-21T16:49:56.325Z,20.86
2023-05-21T16:51:58.419Z,20.90
2023-05-21T16:54:00.701Z,20.84
2023-05-21T16:56:03.181Z,20.96
2023-05-21T16:58:07.102Z,20.76
2023-05-21T17:00:10.026Z,20.64
2023-05-21T17:02:13.827Z,20.48
2023-05-21T17:04:16.097Z,20.55
2023-05-21T17:06:18.236Z,20.44
2023-05-21T17:08:20.427Z,20.60
2023-05-21T17:10:24.581Z,20.73
2023-05-21T17:12:26.994Z,20.65
2023-05-21T17:16:34.731Z,20.59
2023-05-21T17:18:37.026Z,20.69
2023-05-21T17:20:39.519Z,20.59
2023-05-21T17:22:41.779Z,20.57
2023-05-21T17:24:43.837Z,20.61
2023-05-21T17:26:46.089Z,20.71
2023-05-21T17:28:48.215Z,20.71
2023-05-21T17:30:51.168Z,20.44
2023-05-21T17:32:53.296Z,20.68
2023-05-21T17:34:55.662Z,20.67
2023-05-21T17:36:59.186Z,20.68
2023-05-21T17:39:01.705Z,20.57
2023-05-21T17:41:04.147Z,20.50
2023-05-21T17:43:07.560Z,20.43
2023-05-21T17:45:10.163Z,20.49
2023-05-21T17:47:12.562Z,20.40
2023-05-21T17:49:14.914Z,20.30
2023-05-21T17:51:17.163Z,20.34
2023-05-21T17:53:19.487Z,20.22
2023-05-21T17:55:21.913Z,20.27
2023-05-21T17:57:24.102Z,20.33
2023-05-21T17:59:26.471Z,20.27
2023-05-21T18:01:28.964Z,20.23
2023-05-21T18:03:31.718Z,20.34
2023-05-21T18:05:35.184Z,20.19
2023-05-21T18:07:38.551Z,20.21
2023-05-21T18:09:40.783Z,20.19
2023-05-21T18:11:44.761Z,20.00
2023-05-21T18:13:46.893Z,19.94
2023-05-21T18:15:49.063Z,20.03
2023-05-21T18:17:51.303Z,20.00
2023-05-21T18:19:53.376Z,19.80
2023-05-21T18:21:55.520Z,19.96
2023-05-21T18:23:57.661Z,19.88
2023-05-21T18:26:00.262Z,19.81
2023-05-21T18:28:02.384Z,19.83
2023-05-21T18:30:06.604Z,19.81
2023-05-21T18:32:09.004Z,19.75
2023-05-21T18:34:11.508Z,19.66
2023-05-21T18:36:13.571Z,19.61
2023-05-21T18:38:15.681Z,19.59
2023-05-21T18:40:18.490Z,19.55
2023-05-21T18:42:21.015Z,19.64
2023-05-21T18:44:23.196Z,19.52
2023-05-21T18:46:25.648Z,19.46
2023-05-21T18:48:27.844Z,19.32
2023-05-21T18:50:30.152Z,19.32
2023-05-21T18:52:32.712Z,19.32
2023-05-21T18:54:34.822Z,19.42
2023-05-21T18:56:37.212Z,19.35
2023-05-21T18:58:39.421Z,19.32
2023-05-21T19:00:43.580Z,19.36
2023-05-21T19:02:46.961Z,19.35
2023-05-21T19:04:49.526Z,19.33
2023-05-21T19:06:51.696Z,19.24
2023-05-21T19:08:54.184Z,19.24
2023-05-21T19:10:56.413Z,19.29
2023-05-21T19:12:58.952Z,19.32
2023-05-21T19:15:01.052Z,19.20
2023-05-21T19:17:03.153Z,19.16
2023-05-21T19:19:06.285Z,19.12
2023-05-21T19:21:08.588Z,19.16
2023-05-21T19:23:11.021Z,19.16
2023-05-21T19:25:13.163Z,19.07
2023-05-21T19:27:15.487Z,19.01
2023-05-21T19:29:17.718Z,19.06
2023-05-21T19:31:20.702Z,18.86
2023-05-21T19:33:22.960Z,19.01
2023-05-21T19:35:25.122Z,18.98
2023-05-21T19:37:27.262Z,18.97
2023-05-21T19:39:40.738Z,18.95
2023-05-21T19:41:43.028Z,18.74
2023-05-21T19:43:46.094Z,18.77
2023-05-21T19:45:48.349Z,18.76
2023-05-21T19:47:50.424Z,18.67
2023-05-21T19:49:52.398Z,18.63
2023-05-21T19:51:55.184Z,18.61
2023-05-21T19:53:57.615Z,18.59
2023-05-21T19:56:00.030Z,18.51
2023-05-21T19:58:02.148Z,18.46
2023-05-21T20:00:05.566Z,18.53
2023-05-21T20:02:10.958Z,18.56
2023-05-21T20:04:13.802Z,18.45
2023-05-21T20:06:19.163Z,18.26
2023-05-21T20:08:21.382Z,18.42
2023-05-21T20:10:23.539Z,18.40
2023-05-21T20:12:25.595Z,18.37
2023-05-21T20:14:28.044Z,18.20
2023-05-21T20:16:30.654Z,18.27
2023-05-21T20:18:32.633Z,18.22
2023-05-21T20:20:37.680Z,18.12
2023-05-21T20:22:40.154Z,18.00
2023-05-21T20:24:42.640Z,18.08
2023-05-21T20:26:45.273Z,17.98
2023-05-21T20:28:47.797Z,17.98
2023-05-21T20:30:54.723Z,17.94
2023-05-21T20:32:57.643Z,17.92
2023-05-21T20:35:03.262Z,17.78
2023-05-21T20:37:06.330Z,17.71
2023-05-21T20:39:09.391Z,17.80
2023-05-21T20:41:12.362Z,17.81
2023-05-21T20:43:15.146Z,17.70
2023-05-21T20:45:17.348Z,17.77
2023-05-21T20:47:20.702Z,17.71
2023-05-21T20:49:25.088Z,17.69
2023-05-21T20:51:27.862Z,17.71
2023-05-21T20:53:29.933Z,17.62
2023-05-21T20:55:35.147Z,17.60
2023-05-21T20:57:37.298Z,17.52
2023-05-21T20:59:39.291Z,17.55
2023-05-21T21:01:41.788Z,17.44
2023-05-21T21:03:46.097Z,17.49
2023-05-21T21:05:48.256Z,17.51
2023-05-21T21:07:51.821Z,17.54
2023-05-21T21:09:55.576Z,17.52
2023-05-21T21:12:06.297Z,17.53
2023-05-21T21:14:11.262Z,17.41
2023-05-21T21:16:13.370Z,17.41
2023-05-21T21:18:16.498Z,17.45
2023-05-21T21:20:19.585Z,17.49
2023-05-21T21:22:21.783Z,17.45
2023-05-21T21:24:23.785Z,17.49
2023-05-21T21:26:27.243Z,17.47
2023-05-21T21:28:29.403Z,17.51
2023-05-21T21:30:31.701Z,17.27
2023-05-21T21:32:36.068Z,17.44
2023-05-21T21:34:38.271Z,17.49
2023-05-21T21:36:40.685Z,17.44
2023-05-21T21:38:42.538Z,17.35
2023-05-21T21:40:44.722Z,17.31
2023-05-21T21:42:46.807Z,17.27
2023-05-21T21:44:48.906Z,17.31
2023-05-21T21:46:50.817Z,17.40
2023-05-21T21:48:53.012Z,17.44
2023-05-21T21:50:55.240Z,17.49
2023-05-21T21:52:57.493Z,17.21
2023-05-21T21:54:59.886Z,17.35
2023-05-21T21:57:02.391Z,17.13
2023-05-21T21:59:04.367Z,17.31
2023-05-21T22:01:06.563Z,17.20
2023-05-21T22:03:08.619Z,17.26
2023-05-21T22:05:10.656Z,17.19
2023-05-21T22:07:18.269Z,17.13
2023-05-21T22:09:22.762Z,17.13
2023-05-21T22:11:24.868Z,17.02
2023-05-21T22:13:29.163Z,17.00
2023-05-21T22:15:32.487Z,16.88
2023-05-21T22:17:35.168Z,17.05
2023-05-21T22:19:37.187Z,17.05
2023-05-21T22:21:39.768Z,16.93
2023-05-21T22:23:41.775Z,16.95
2023-05-21T22:25:43.675Z,16.92
2023-05-21T22:27:45.813Z,17.05
2023-05-21T22:29:47.830Z,17.04
2023-05-21T22:31:49.883Z,16.85
2023-05-21T22:33:51.849Z,16.87
2023-05-21T22:35:54.722Z,16.80
2023-05-21T22:37:56.740Z,16.95
2023-05-21T22:39:58.643Z,16.87
2023-05-21T22:42:00.905Z,16.81
2023-05-21T22:44:02.895Z,16.85
2023-05-21T22:46:04.850Z,16.80
2023-05-21T22:48:07.418Z,16.78
2023-05-21T22:50:10.819Z,16.79
2023-05-21T22:52:14.712Z,16.74
2023-05-21T22:54:17.414Z,16.78
2023-05-21T22:56:19.852Z,16.77
2023-05-21T22:58:21.764Z,16.63
2023-05-21T23:00:24.105Z,16.60
2023-05-21T23:02:26.222Z,16.50
2023-05-21T23:04:43.501Z,16.61
2023-05-21T23:06:46.101Z,16.73
2023-05-21T23:08:47.989Z,16.52
2023-05-21T23:10:49.962Z,16.59
2023-05-21T23:12:52.455Z,16.62
2023-05-21T23:14:54.669Z,16.63
2023-05-21T23:17:02.156Z,16.77
2023-05-21T23:19:04.470Z,16.62
2023-05-21T23:21:06.786Z,16.70
2023-05-21T23:23:09.547Z,16.65
2023-05-21T23:25:11.413Z,16.45
2023-05-21T23:27:13.449Z,16.60
2023-05-21T23:29:15.325Z,16.56
2023-05-21T23:31:18.066Z,16.47
2023-05-21T23:33:20.020Z,16.51
2023-05-21T23:35:22.088Z,16.52
2023-05-21T23:37:23.943Z,16.56
2023-05-21T23:39:27.182Z,16.60
2023-05-21T23:41:29.209Z,16.62
2023-05-21T23:43:31.094Z,16.53
2023-05-21T23:45:33.185Z,16.59
2023-05-21T23:47:35.182Z,16.51
2023-05-21T23:49:37.158Z,16.62
2023-05-21T23:51:39.699Z,16.43
2023-05-21T23:53:41.552Z,16.46
2023-05-21T23:55:44.440Z,16.45
2023-05-21T23:57:46.305Z,16.43
2023-05-21T23:59:48.352Z,16.50
